sensor_id;sensor_type;location;lat;lon;timestamp;P1;P2;P0
74880;PMS5003;63427;49.654;6.596;2023-09-19T00:01:42;5;5;
74880;PMS5003;63427;49.654;6.596;2023-09-19T00:04:07;4;4;
74880;PMS5003;63427;49.654;6.596;2023-09-19T00:06:32;5;5;
74880;PMS5003;63427;49.654;6.596;2023-09-19T00:08:57;4;4;
74880;PMS5003;63427;49.654;6.596;2023-09-19T00:11:23;5;5;
74880;PMS5003;63427;49.654;6.596;2023-09-19T00:13:48;4;4;
74880;PMS5003;63427;49.654;6.596;2023-09-19T00:16:13;5;5;
74880;PMS5003;63427;49.654;6.596;2023-09-19T00:18:38;6;5;
74880;PMS5003;63427;49.654;6.596;2023-09-19T00:21:03;5;5;
74880;PMS5003;63427;49.654;6.596;2023-09-19T00:23:29;3;3;
74880;PMS5003;63427;49.654;6.596;2023-09-19T00:25:54;6;6;
74880;PMS5003;63427;49.654;6.596;2023-09-19T00:28:19;4;4;
74880;PMS5003;63427;49.654;6.596;2023-09-19T00:30:45;5;5;
74880;PMS5003;63427;49.654;6.596;2023-09-19T00:33:10;4;4;
74880;PMS5003;63427;49.654;6.596;2023-09-19T00:35:35;7;6;
74880;PMS5003;63427;49.654;6.596;2023-09-19T00:38:00;4;4;
74880;PMS5003;63427;49.654;6.596;2023-09-19T00:40:25;4;4;
74880;PMS5003;63427;49.654;6.596;2023-09-19T00:42:51;5;5;
74880;PMS5003;63427;49.654;6.596;2023-09-19T00:45:16;4;4;
74880;PMS5003;63427;49.654;6.596;2023-09-19T00:47:42;5;5;
74880;PMS5003;63427;49.654;6.596;2023-09-19T00:50:07;6;6;
74880;PMS5003;63427;49.654;6.596;2023-09-19T00:52:32;5;5;
74880;PMS5003;63427;49.654;6.596;2023-09-19T00:54:58;4;4;
74880;PMS5003;63427;49.654;6.596;2023-09-19T00:57:22;5;5;
74880;PMS5003;63427;49.654;6.596;2023-09-19T00:59:48;6;6;
74880;PMS5003;63427;49.654;6.596;2023-09-19T01:02:13;5;5;
74880;PMS5003;63427;49.654;6.596;2023-09-19T01:04:39;7;7;
74880;PMS5003;63427;49.654;6.596;2023-09-19T01:07:04;5;5;
74880;PMS5003;63427;49.654;6.596;2023-09-19T01:09:29;6;5;
74880;PMS5003;63427;49.654;6.596;2023-09-19T01:11:57;5;5;
74880;PMS5003;63427;49.654;6.596;2023-09-19T01:14:22;6;5;
74880;PMS5003;63427;49.654;6.596;2023-09-19T01:16:47;5;5;
74880;PMS5003;63427;49.654;6.596;2023-09-19T01:21:37;5;5;
74880;PMS5003;63427;49.654;6.596;2023-09-19T01:26:30;6;6;
74880;PMS5003;63427;49.654;6.596;2023-09-19T01:28:53;7;7;
74880;PMS5003;63427;49.654;6.596;2023-09-19T01:31:18;6;5;
74880;PMS5003;63427;49.654;6.596;2023-09-19T01:36:09;5;5;
74880;PMS5003;63427;49.654;6.596;2023-09-19T01:38:34;6;6;
74880;PMS5003;63427;49.654;6.596;2023-09-19T01:41:00;5;5;
74880;PMS5003;63427;49.654;6.596;2023-09-19T01:43:26;6;5;
74880;PMS5003;63427;49.654;6.596;2023-09-19T01:45:52;7;5;
74880;PMS5003;63427;49.654;6.596;2023-09-19T01:48:22;5;5;
74880;PMS5003;63427;49.654;6.596;2023-09-19T01:50:42;6;6;
74880;PMS5003;63427;49.654;6.596;2023-09-19T01:53:06;4;4;
74880;PMS5003;63427;49.654;6.596;2023-09-19T01:55:32;5;5;
74880;PMS5003;63427;49.654;6.596;2023-09-19T01:58:00;5;5;
74880;PMS5003;63427;49.654;6.596;2023-09-19T02:00:21;5;5;
74880;PMS5003;63427;49.654;6.596;2023-09-19T02:02:47;5;5;
74880;PMS5003;63427;49.654;6.596;2023-09-19T02:05:12;4;3;
74880;PMS5003;63427;49.654;6.596;2023-09-19T02:07:38;5;5;
74880;PMS5003;63427;49.654;6.596;2023-09-19T02:10:03;5;5;
74880;PMS5003;63427;49.654;6.596;2023-09-19T02:12:28;5;5;
74880;PMS5003;63427;49.654;6.596;2023-09-19T02:14:53;5;5;
74880;PMS5003;63427;49.654;6.596;2023-09-19T02:17:18;5;5;
74880;PMS5003;63427;49.654;6.596;2023-09-19T02:19:44;4;4;
74880;PMS5003;63427;49.654;6.596;2023-09-19T02:22:09;6;6;
74880;PMS5003;63427;49.654;6.596;2023-09-19T02:24:34;5;5;
74880;PMS5003;63427;49.654;6.596;2023-09-19T02:26:59;3;3;
74880;PMS5003;63427;49.654;6.596;2023-09-19T02:29:25;6;4;
74880;PMS5003;63427;49.654;6.596;2023-09-19T02:31:50;6;6;
74880;PMS5003;63427;49.654;6.596;2023-09-19T02:34:15;7;7;
74880;PMS5003;63427;49.654;6.596;2023-09-19T02:36:41;5;5;
74880;PMS5003;63427;49.654;6.596;2023-09-19T02:39:06;5;4;
74880;PMS5003;63427;49.654;6.596;2023-09-19T02:41:31;4;4;
74880;PMS5003;63427;49.654;6.596;2023-09-19T02:43:57;3;3;
74880;PMS5003;63427;49.654;6.596;2023-09-19T02:46:22;6;5;
74880;PMS5003;63427;49.654;6.596;2023-09-19T02:48:47;5;4;
74880;PMS5003;63427;49.654;6.596;2023-09-19T02:51:12;6;6;
74880;PMS5003;63427;49.654;6.596;2023-09-19T02:53:38;5;5;
74880;PMS5003;63427;49.654;6.596;2023-09-19T02:56:03;6;5;
74880;PMS5003;63427;49.654;6.596;2023-09-19T02:58:28;3;3;
74880;PMS5003;63427;49.654;6.596;2023-09-19T03:00:54;5;5;
74880;PMS5003;63427;49.654;6.596;2023-09-19T03:03:19;4;4;
74880;PMS5003;63427;49.654;6.596;2023-09-19T03:05:45;4;3;
74880;PMS5003;63427;49.654;6.596;2023-09-19T03:08:10;3;3;
74880;PMS5003;63427;49.654;6.596;2023-09-19T03:10:35;3;3;
74880;PMS5003;63427;49.654;6.596;2023-09-19T03:13:01;3;2;
74880;PMS5003;63427;49.654;6.596;2023-09-19T03:15:26;5;5;
74880;PMS5003;63427;49.654;6.596;2023-09-19T03:17:51;5;5;
74880;PMS5003;63427;49.654;6.596;2023-09-19T03:20:17;3;3;
74880;PMS5003;63427;49.654;6.596;2023-09-19T03:22:42;4;4;
74880;PMS5003;63427;49.654;6.596;2023-09-19T03:25:08;4;4;
74880;PMS5003;63427;49.654;6.596;2023-09-19T03:27:33;3;3;
74880;PMS5003;63427;49.654;6.596;2023-09-19T03:29:58;2;2;
74880;PMS5003;63427;49.654;6.596;2023-09-19T03:32:24;2;2;
74880;PMS5003;63427;49.654;6.596;2023-09-19T03:34:49;2;2;
74880;PMS5003;63427;49.654;6.596;2023-09-19T03:37:14;4;4;
74880;PMS5003;63427;49.654;6.596;2023-09-19T03:39:39;3;3;
74880;PMS5003;63427;49.654;6.596;2023-09-19T03:42:05;4;4;
74880;PMS5003;63427;49.654;6.596;2023-09-19T03:44:30;5;4;
74880;PMS5003;63427;49.654;6.596;2023-09-19T03:46:56;4;4;
74880;PMS5003;63427;49.654;6.596;2023-09-19T03:49:21;3;3;
74880;PMS5003;63427;49.654;6.596;2023-09-19T03:51:46;4;4;
74880;PMS5003;63427;49.654;6.596;2023-09-19T03:54:11;4;4;
74880;PMS5003;63427;49.654;6.596;2023-09-19T03:56:37;3;3;
74880;PMS5003;63427;49.654;6.596;2023-09-19T03:59:02;5;4;
74880;PMS5003;63427;49.654;6.596;2023-09-19T04:01:27;2;2;
74880;PMS5003;63427;49.654;6.596;2023-09-19T04:03:53;3;3;
74880;PMS5003;63427;49.654;6.596;2023-09-19T04:06:18;3;3;
74880;PMS5003;63427;49.654;6.596;2023-09-19T04:08:43;5;5;
74880;PMS5003;63427;49.654;6.596;2023-09-19T04:11:08;5;5;
74880;PMS5003;63427;49.654;6.596;2023-09-19T04:13:34;3;3;
74880;PMS5003;63427;49.654;6.596;2023-09-19T04:15:59;5;5;
74880;PMS5003;63427;49.654;6.596;2023-09-19T04:18:24;5;4;
74880;PMS5003;63427;49.654;6.596;2023-09-19T04:20:50;5;5;
74880;PMS5003;63427;49.654;6.596;2023-09-19T04:23:15;4;4;
74880;PMS5003;63427;49.654;6.596;2023-09-19T04:25:40;3;3;
74880;PMS5003;63427;49.654;6.596;2023-09-19T04:28:06;2;2;
74880;PMS5003;63427;49.654;6.596;2023-09-19T04:30:31;4;3;
74880;PMS5003;63427;49.654;6.596;2023-09-19T04:32:56;5;5;
74880;PMS5003;63427;49.654;6.596;2023-09-19T04:35:23;4;3;
74880;PMS5003;63427;49.654;6.596;2023-09-19T04:37:47;4;3;
74880;PMS5003;63427;49.654;6.596;2023-09-19T04:40:12;3;3;
74880;PMS5003;63427;49.654;6.596;2023-09-19T04:42:39;4;4;
74880;PMS5003;63427;49.654;6.596;2023-09-19T04:45:03;5;3;
74880;PMS5003;63427;49.654;6.596;2023-09-19T04:47:28;3;3;
74880;PMS5003;63427;49.654;6.596;2023-09-19T04:49:53;4;4;
74880;PMS5003;63427;49.654;6.596;2023-09-19T04:52:19;5;5;
74880;PMS5003;63427;49.654;6.596;2023-09-19T04:54:44;5;4;
74880;PMS5003;63427;49.654;6.596;2023-09-19T04:57:10;4;4;
74880;PMS5003;63427;49.654;6.596;2023-09-19T04:59:36;4;4;
74880;PMS5003;63427;49.654;6.596;2023-09-19T05:02:01;4;4;
74880;PMS5003;63427;49.654;6.596;2023-09-19T05:04:26;3;3;
74880;PMS5003;63427;49.654;6.596;2023-09-19T05:06:51;5;5;
74880;PMS5003;63427;49.654;6.596;2023-09-19T05:09:16;4;4;
74880;PMS5003;63427;49.654;6.596;2023-09-19T05:11:42;3;3;
74880;PMS5003;63427;49.654;6.596;2023-09-19T05:14:07;5;4;
74880;PMS5003;63427;49.654;6.596;2023-09-19T05:16:32;5;5;
74880;PMS5003;63427;49.654;6.596;2023-09-19T05:18:58;4;4;
74880;PMS5003;63427;49.654;6.596;2023-09-19T05:21:23;5;5;
74880;PMS5003;63427;49.654;6.596;2023-09-19T05:23:48;4;4;
74880;PMS5003;63427;49.654;6.596;2023-09-19T05:26:14;3;3;
74880;PMS5003;63427;49.654;6.596;2023-09-19T05:28:39;5;5;
74880;PMS5003;63427;49.654;6.596;2023-09-19T05:31:04;5;5;
74880;PMS5003;63427;49.654;6.596;2023-09-19T05:33:30;4;4;
74880;PMS5003;63427;49.654;6.596;2023-09-19T05:35:55;4;4;
74880;PMS5003;63427;49.654;6.596;2023-09-19T05:38:20;4;4;
74880;PMS5003;63427;49.654;6.596;2023-09-19T05:40:46;6;6;
74880;PMS5003;63427;49.654;6.596;2023-09-19T05:43:12;5;4;
74880;PMS5003;63427;49.654;6.596;2023-09-19T05:45:37;5;4;
74880;PMS5003;63427;49.654;6.596;2023-09-19T05:48:07;5;5;
74880;PMS5003;63427;49.654;6.596;2023-09-19T05:50:28;5;4;
74880;PMS5003;63427;49.654;6.596;2023-09-19T05:52:53;4;4;
74880;PMS5003;63427;49.654;6.596;2023-09-19T05:55:18;4;4;
74880;PMS5003;63427;49.654;6.596;2023-09-19T05:57:43;4;4;
74880;PMS5003;63427;49.654;6.596;2023-09-19T06:00:09;5;5;
74880;PMS5003;63427;49.654;6.596;2023-09-19T06:02:34;4;3;
74880;PMS5003;63427;49.654;6.596;2023-09-19T06:04:59;5;5;
74880;PMS5003;63427;49.654;6.596;2023-09-19T06:07:25;4;4;
74880;PMS5003;63427;49.654;6.596;2023-09-19T06:09:50;5;5;
74880;PMS5003;63427;49.654;6.596;2023-09-19T06:12:16;4;4;
74880;PMS5003;63427;49.654;6.596;2023-09-19T06:14:41;4;4;
74880;PMS5003;63427;49.654;6.596;2023-09-19T06:17:06;4;4;
74880;PMS5003;63427;49.654;6.596;2023-09-19T06:19:31;5;5;
74880;PMS5003;63427;49.654;6.596;2023-09-19T06:21:57;3;2;
74880;PMS5003;63427;49.654;6.596;2023-09-19T06:24:22;3;3;
74880;PMS5003;63427;49.654;6.596;2023-09-19T06:26:48;5;4;
74880;PMS5003;63427;49.654;6.596;2023-09-19T06:29:13;7;5;
74880;PMS5003;63427;49.654;6.596;2023-09-19T06:31:39;5;5;
74880;PMS5003;63427;49.654;6.596;2023-09-19T06:34:04;5;4;
74880;PMS5003;63427;49.654;6.596;2023-09-19T06:36:29;5;5;
74880;PMS5003;63427;49.654;6.596;2023-09-19T06:38:54;6;5;
74880;PMS5003;63427;49.654;6.596;2023-09-19T06:41:19;4;4;
74880;PMS5003;63427;49.654;6.596;2023-09-19T06:43:45;4;3;
74880;PMS5003;63427;49.654;6.596;2023-09-19T06:46:10;4;4;
74880;PMS5003;63427;49.654;6.596;2023-09-19T06:48:35;9;5;
74880;PMS5003;63427;49.654;6.596;2023-09-19T06:51:01;4;4;
74880;PMS5003;63427;49.654;6.596;2023-09-19T06:53:26;5;4;
74880;PMS5003;63427;49.654;6.596;2023-09-19T06:55:51;5;5;
74880;PMS5003;63427;49.654;6.596;2023-09-19T06:58:16;5;4;
74880;PMS5003;63427;49.654;6.596;2023-09-19T07:00:42;5;4;
74880;PMS5003;63427;49.654;6.596;2023-09-19T07:03:07;5;4;
74880;PMS5003;63427;49.654;6.596;2023-09-19T07:05:33;4;4;
74880;PMS5003;63427;49.654;6.596;2023-09-19T07:07:58;4;4;
74880;PMS5003;63427;49.654;6.596;2023-09-19T07:10:23;4;4;
74880;PMS5003;63427;49.654;6.596;2023-09-19T07:12:52;8;7;
74880;PMS5003;63427;49.654;6.596;2023-09-19T07:15:14;4;3;
74880;PMS5003;63427;49.654;6.596;2023-09-19T07:17:39;5;5;
74880;PMS5003;63427;49.654;6.596;2023-09-19T07:20:05;4;4;
74880;PMS5003;63427;49.654;6.596;2023-09-19T07:22:30;4;4;
74880;PMS5003;63427;49.654;6.596;2023-09-19T07:24:55;5;5;
74880;PMS5003;63427;49.654;6.596;2023-09-19T07:27:20;5;4;
74880;PMS5003;63427;49.654;6.596;2023-09-19T07:29:46;7;6;
74880;PMS5003;63427;49.654;6.596;2023-09-19T07:32:11;6;5;
74880;PMS5003;63427;49.654;6.596;2023-09-19T07:34:37;4;4;
74880;PMS5003;63427;49.654;6.596;2023-09-19T07:37:03;5;5;
74880;PMS5003;63427;49.654;6.596;2023-09-19T07:39:28;7;6;
74880;PMS5003;63427;49.654;6.596;2023-09-19T07:41:53;3;3;
74880;PMS5003;63427;49.654;6.596;2023-09-19T07:44:18;5;5;
74880;PMS5003;63427;49.654;6.596;2023-09-19T07:46:43;4;4;
74880;PMS5003;63427;49.654;6.596;2023-09-19T07:49:08;5;5;
74880;PMS5003;63427;49.654;6.596;2023-09-19T07:51:34;6;6;
74880;PMS5003;63427;49.654;6.596;2023-09-19T07:53:59;3;3;
74880;PMS5003;63427;49.654;6.596;2023-09-19T07:56:25;4;4;
74880;PMS5003;63427;49.654;6.596;2023-09-19T07:58:49;4;4;
74880;PMS5003;63427;49.654;6.596;2023-09-19T08:01:15;4;3;
74880;PMS5003;63427;49.654;6.596;2023-09-19T08:03:40;3;3;
74880;PMS5003;63427;49.654;6.596;2023-09-19T08:06:05;4;4;
74880;PMS5003;63427;49.654;6.596;2023-09-19T08:08:30;6;5;
74880;PMS5003;63427;49.654;6.596;2023-09-19T08:10:57;7;5;
74880;PMS5003;63427;49.654;6.596;2023-09-19T08:13:21;4;4;
74880;PMS5003;63427;49.654;6.596;2023-09-19T08:15:46;4;4;
74880;PMS5003;63427;49.654;6.596;2023-09-19T08:18:11;3;3;
74880;PMS5003;63427;49.654;6.596;2023-09-19T08:20:36;5;4;
74880;PMS5003;63427;49.654;6.596;2023-09-19T08:23:02;3;3;
74880;PMS5003;63427;49.654;6.596;2023-09-19T08:25:28;4;4;
74880;PMS5003;63427;49.654;6.596;2023-09-19T08:27:54;3;3;
74880;PMS5003;63427;49.654;6.596;2023-09-19T08:30:19;6;5;
74880;PMS5003;63427;49.654;6.596;2023-09-19T08:32:43;6;4;
74880;PMS5003;63427;49.654;6.596;2023-09-19T08:35:08;3;3;
74880;PMS5003;63427;49.654;6.596;2023-09-19T08:37:33;5;4;
74880;PMS5003;63427;49.654;6.596;2023-09-19T08:39:59;2;2;
74880;PMS5003;63427;49.654;6.596;2023-09-19T08:42:24;3;3;
74880;PMS5003;63427;49.654;6.596;2023-09-19T08:44:49;4;2;
74880;PMS5003;63427;49.654;6.596;2023-09-19T08:47:15;4;3;
74880;PMS5003;63427;49.654;6.596;2023-09-19T08:49:41;3;3;
74880;PMS5003;63427;49.654;6.596;2023-09-19T08:52:07;3;2;
74880;PMS5003;63427;49.654;6.596;2023-09-19T08:54:31;3;2;
74880;PMS5003;63427;49.654;6.596;2023-09-19T08:56:55;3;2;
74880;PMS5003;63427;49.654;6.596;2023-09-19T08:59:21;3;2;
74880;PMS5003;63427;49.654;6.596;2023-09-19T09:01:46;3;3;
74880;PMS5003;63427;49.654;6.596;2023-09-19T09:04:11;2;2;
74880;PMS5003;63427;49.654;6.596;2023-09-19T09:06:36;3;3;
74880;PMS5003;63427;49.654;6.596;2023-09-19T09:09:01;2;2;
74880;PMS5003;63427;49.654;6.596;2023-09-19T09:11:26;3;3;
74880;PMS5003;63427;49.654;6.596;2023-09-19T09:13:51;2;2;
74880;PMS5003;63427;49.654;6.596;2023-09-19T09:16:16;3;3;
74880;PMS5003;63427;49.654;6.596;2023-09-19T09:18:42;3;3;
74880;PMS5003;63427;49.654;6.596;2023-09-19T09:21:07;2;2;
74880;PMS5003;63427;49.654;6.596;2023-09-19T09:23:32;2;2;
74880;PMS5003;63427;49.654;6.596;2023-09-19T09:25:58;2;2;
74880;PMS5003;63427;49.654;6.596;2023-09-19T09:28:23;1;1;
74880;PMS5003;63427;49.654;6.596;2023-09-19T09:30:47;2;2;
74880;PMS5003;63427;49.654;6.596;2023-09-19T09:33:13;7;6;
74880;PMS5003;63427;49.654;6.596;2023-09-19T09:38:04;2;2;
74880;PMS5003;63427;49.654;6.596;2023-09-19T09:40:33;1;1;
74880;PMS5003;63427;49.654;6.596;2023-09-19T09:42:54;1;1;
74880;PMS5003;63427;49.654;6.596;2023-09-19T09:45:20;1;1;
74880;PMS5003;63427;49.654;6.596;2023-09-19T09:47:45;2;1;
74880;PMS5003;63427;49.654;6.596;2023-09-19T09:50:10;1;1;
74880;PMS5003;63427;49.654;6.596;2023-09-19T09:55:00;2;2;
74880;PMS5003;63427;49.654;6.596;2023-09-19T09:57:25;2;2;
74880;PMS5003;63427;49.654;6.596;2023-09-19T09:59:51;1;0;
74880;PMS5003;63427;49.654;6.596;2023-09-19T10:02:16;3;3;
74880;PMS5003;63427;49.654;6.596;2023-09-19T10:04:40;2;2;
74880;PMS5003;63427;49.654;6.596;2023-09-19T10:07:05;1;1;
74880;PMS5003;63427;49.654;6.596;2023-09-19T10:12:00;4;4;
74880;PMS5003;63427;49.654;6.596;2023-09-19T10:14:21;1;0;
74880;PMS5003;63427;49.654;6.596;2023-09-19T10:16:46;0;0;
74880;PMS5003;63427;49.654;6.596;2023-09-19T10:19:11;2;2;
74880;PMS5003;63427;49.654;6.596;2023-09-19T10:21:36;3;3;
74880;PMS5003;63427;49.654;6.596;2023-09-19T10:24:01;2;2;
74880;PMS5003;63427;49.654;6.596;2023-09-19T10:26:26;3;2;
74880;PMS5003;63427;49.654;6.596;2023-09-19T10:28:51;5;4;
74880;PMS5003;63427;49.654;6.596;2023-09-19T10:31:17;1;1;
74880;PMS5003;63427;49.654;6.596;2023-09-19T10:33:43;1;1;
74880;PMS5003;63427;49.654;6.596;2023-09-19T10:36:09;2;2;
74880;PMS5003;63427;49.654;6.596;2023-09-19T10:38:35;2;2;
74880;PMS5003;63427;49.654;6.596;2023-09-19T10:41:01;1;1;
74880;PMS5003;63427;49.654;6.596;2023-09-19T10:43:29;1;1;
74880;PMS5003;63427;49.654;6.596;2023-09-19T10:45:52;1;1;
74880;PMS5003;63427;49.654;6.596;2023-09-19T10:48:18;2;2;
74880;PMS5003;63427;49.654;6.596;2023-09-19T10:50:45;1;1;
74880;PMS5003;63427;49.654;6.596;2023-09-19T10:53:09;3;1;
74880;PMS5003;63427;49.654;6.596;2023-09-19T10:55:35;2;1;
74880;PMS5003;63427;49.654;6.596;2023-09-19T10:58:01;3;2;
74880;PMS5003;63427;49.654;6.596;2023-09-19T11:00:27;1;1;
74880;PMS5003;63427;49.654;6.596;2023-09-19T11:05:19;1;1;
74880;PMS5003;63427;49.654;6.596;2023-09-19T11:15:02;1;0;
74880;PMS5003;63427;49.654;6.596;2023-09-19T11:17:30;1;1;
74880;PMS5003;63427;49.654;6.596;2023-09-19T11:22:19;1;1;
74880;PMS5003;63427;49.654;6.596;2023-09-19T11:24:45;1;1;
74880;PMS5003;63427;49.654;6.596;2023-09-19T11:27:12;3;2;
74880;PMS5003;63427;49.654;6.596;2023-09-19T11:29:36;2;1;
74880;PMS5003;63427;49.654;6.596;2023-09-19T11:32:02;1;1;
74880;PMS5003;63427;49.654;6.596;2023-09-19T11:36:54;1;1;
74880;PMS5003;63427;49.654;6.596;2023-09-19T11:39:24;1;1;
74880;PMS5003;63427;49.654;6.596;2023-09-19T11:41:45;2;2;
74880;PMS5003;63427;49.654;6.596;2023-09-19T11:49:05;1;1;
74880;PMS5003;63427;49.654;6.596;2023-09-19T11:51:28;1;1;
74880;PMS5003;63427;49.654;6.596;2023-09-19T11:53:55;1;1;
74880;PMS5003;63427;49.654;6.596;2023-09-19T11:56:20;1;1;
74880;PMS5003;63427;49.654;6.596;2023-09-19T11:58:46;2;2;
74880;PMS5003;63427;49.654;6.596;2023-09-19T12:01:13;1;1;
74880;PMS5003;63427;49.654;6.596;2023-09-19T12:03:37;2;2;
74880;PMS5003;63427;49.654;6.596;2023-09-19T12:06:03;1;1;
74880;PMS5003;63427;49.654;6.596;2023-09-19T12:08:29;1;1;
74880;PMS5003;63427;49.654;6.596;2023-09-19T12:10:54;1;1;
74880;PMS5003;63427;49.654;6.596;2023-09-19T12:13:20;1;1;
74880;PMS5003;63427;49.654;6.596;2023-09-19T12:15:46;1;1;
74880;PMS5003;63427;49.654;6.596;2023-09-19T12:20:43;1;1;
74880;PMS5003;63427;49.654;6.596;2023-09-19T12:23:03;1;1;
74880;PMS5003;63427;49.654;6.596;2023-09-19T12:27:55;1;1;
74880;PMS5003;63427;49.654;6.596;2023-09-19T12:30:20;2;2;
74880;PMS5003;63427;49.654;6.596;2023-09-19T12:32:46;0;0;
74880;PMS5003;63427;49.654;6.596;2023-09-19T12:35:26;2;2;
74880;PMS5003;63427;49.654;6.596;2023-09-19T12:37:38;0;0;
74880;PMS5003;63427;49.654;6.596;2023-09-19T12:40:04;2;2;
74880;PMS5003;63427;49.654;6.596;2023-09-19T12:42:29;1;0;
74880;PMS5003;63427;49.654;6.596;2023-09-19T12:44:55;0;0;
74880;PMS5003;63427;49.654;6.596;2023-09-19T12:47:21;0;0;
74880;PMS5003;63427;49.654;6.596;2023-09-19T12:52:12;0;0;
74880;PMS5003;63427;49.654;6.596;2023-09-19T12:54:38;1;1;
74880;PMS5003;63427;49.654;6.596;2023-09-19T12:57:03;2;2;
74880;PMS5003;63427;49.654;6.596;2023-09-19T12:59:29;2;2;
74880;PMS5003;63427;49.654;6.596;2023-09-19T13:02:03;0;0;
74880;PMS5003;63427;49.654;6.596;2023-09-19T13:04:21;2;2;
74880;PMS5003;63427;49.654;6.596;2023-09-19T13:06:46;0;0;
74880;PMS5003;63427;49.654;6.596;2023-09-19T13:09:12;1;1;
74880;PMS5003;63427;49.654;6.596;2023-09-19T13:11:38;1;1;
74880;PMS5003;63427;49.654;6.596;2023-09-19T13:16:29;0;0;
74880;PMS5003;63427;49.654;6.596;2023-09-19T13:18:54;1;1;
74880;PMS5003;63427;49.654;6.596;2023-09-19T13:21:29;1;1;
74880;PMS5003;63427;49.654;6.596;2023-09-19T13:23:46;2;2;
74880;PMS5003;63427;49.654;6.596;2023-09-19T13:26:12;2;2;
74880;PMS5003;63427;49.654;6.596;2023-09-19T13:28:37;1;1;
74880;PMS5003;63427;49.654;6.596;2023-09-19T13:31:03;1;1;
74880;PMS5003;63427;49.654;6.596;2023-09-19T13:33:28;1;1;
74880;PMS5003;63427;49.654;6.596;2023-09-19T13:35:54;1;1;
74880;PMS5003;63427;49.654;6.596;2023-09-19T13:38:20;1;1;
74880;PMS5003;63427;49.654;6.596;2023-09-19T13:40:45;1;1;
74880;PMS5003;63427;49.654;6.596;2023-09-19T13:43:11;1;1;
74880;PMS5003;63427;49.654;6.596;2023-09-19T13:45:37;2;2;
74880;PMS5003;63427;49.654;6.596;2023-09-19T13:48:03;1;1;
74880;PMS5003;63427;49.654;6.596;2023-09-19T13:50:28;1;1;
74880;PMS5003;63427;49.654;6.596;2023-09-19T13:52:54;2;2;
74880;PMS5003;63427;49.654;6.596;2023-09-19T13:55:20;1;1;
74880;PMS5003;63427;49.654;6.596;2023-09-19T13:57:45;2;1;
74880;PMS5003;63427;49.654;6.596;2023-09-19T14:00:11;0;0;
74880;PMS5003;63427;49.654;6.596;2023-09-19T14:02:36;1;1;
74880;PMS5003;63427;49.654;6.596;2023-09-19T14:05:02;0;0;
74880;PMS5003;63427;49.654;6.596;2023-09-19T14:07:28;2;2;
74880;PMS5003;63427;49.654;6.596;2023-09-19T14:09:53;0;0;
74880;PMS5003;63427;49.654;6.596;2023-09-19T14:12:19;2;2;
74880;PMS5003;63427;49.654;6.596;2023-09-19T14:14:45;3;2;
74880;PMS5003;63427;49.654;6.596;2023-09-19T14:17:10;1;1;
74880;PMS5003;63427;49.654;6.596;2023-09-19T14:19:36;0;0;
74880;PMS5003;63427;49.654;6.596;2023-09-19T14:22:02;2;2;
74880;PMS5003;63427;49.654;6.596;2023-09-19T14:24:28;2;2;
74880;PMS5003;63427;49.654;6.596;2023-09-19T14:26:53;1;1;
74880;PMS5003;63427;49.654;6.596;2023-09-19T14:29:19;2;1;
74880;PMS5003;63427;49.654;6.596;2023-09-19T14:31:45;3;2;
74880;PMS5003;63427;49.654;6.596;2023-09-19T14:34:10;3;3;
74880;PMS5003;63427;49.654;6.596;2023-09-19T14:36:36;1;1;
74880;PMS5003;63427;49.654;6.596;2023-09-19T14:39:05;2;2;
74880;PMS5003;63427;49.654;6.596;2023-09-19T14:41:27;2;2;
74880;PMS5003;63427;49.654;6.596;2023-09-19T14:43:53;1;1;
74880;PMS5003;63427;49.654;6.596;2023-09-19T14:46:18;1;1;
74880;PMS5003;63427;49.654;6.596;2023-09-19T14:48:44;0;0;
74880;PMS5003;63427;49.654;6.596;2023-09-19T14:51:13;2;2;
74880;PMS5003;63427;49.654;6.596;2023-09-19T14:53:36;2;2;
74880;PMS5003;63427;49.654;6.596;2023-09-19T14:56:07;2;1;
74880;PMS5003;63427;49.654;6.596;2023-09-19T14:58:27;2;2;
74880;PMS5003;63427;49.654;6.596;2023-09-19T15:00:53;2;2;
74880;PMS5003;63427;49.654;6.596;2023-09-19T15:03:18;1;1;
74880;PMS5003;63427;49.654;6.596;2023-09-19T15:05:44;2;1;
74880;PMS5003;63427;49.654;6.596;2023-09-19T15:08:10;4;3;
74880;PMS5003;63427;49.654;6.596;2023-09-19T15:10:35;3;3;
74880;PMS5003;63427;49.654;6.596;2023-09-19T15:13:01;2;2;
74880;PMS5003;63427;49.654;6.596;2023-09-19T15:15:27;2;2;
74880;PMS5003;63427;49.654;6.596;2023-09-19T15:17:53;1;1;
74880;PMS5003;63427;49.654;6.596;2023-09-19T15:20:19;2;2;
74880;PMS5003;63427;49.654;6.596;2023-09-19T15:22:44;3;2;
74880;PMS5003;63427;49.654;6.596;2023-09-19T15:25:10;1;1;
74880;PMS5003;63427;49.654;6.596;2023-09-19T15:27:36;2;2;
74880;PMS5003;63427;49.654;6.596;2023-09-19T15:30:02;2;1;
74880;PMS5003;63427;49.654;6.596;2023-09-19T15:32:28;2;1;
74880;PMS5003;63427;49.654;6.596;2023-09-19T15:34:53;1;1;
74880;PMS5003;63427;49.654;6.596;2023-09-19T15:37:19;0;0;
74880;PMS5003;63427;49.654;6.596;2023-09-19T15:39:45;2;1;
74880;PMS5003;63427;49.654;6.596;2023-09-19T15:42:11;1;1;
74880;PMS5003;63427;49.654;6.596;2023-09-19T15:44:37;3;3;
74880;PMS5003;63427;49.654;6.596;2023-09-19T15:47:03;2;2;
74880;PMS5003;63427;49.654;6.596;2023-09-19T15:49:29;1;1;
74880;PMS5003;63427;49.654;6.596;2023-09-19T15:51:54;1;1;
74880;PMS5003;63427;49.654;6.596;2023-09-19T15:54:20;1;1;
74880;PMS5003;63427;49.654;6.596;2023-09-19T15:56:46;2;2;
74880;PMS5003;63427;49.654;6.596;2023-09-19T15:59:12;2;2;
74880;PMS5003;63427;49.654;6.596;2023-09-19T16:01:38;1;1;
74880;PMS5003;63427;49.654;6.596;2023-09-19T16:04:05;2;2;
74880;PMS5003;63427;49.654;6.596;2023-09-19T16:06:30;3;2;
74880;PMS5003;63427;49.654;6.596;2023-09-19T16:08:56;4;3;
74880;PMS5003;63427;49.654;6.596;2023-09-19T16:11:21;2;2;
74880;PMS5003;63427;49.654;6.596;2023-09-19T16:13:48;2;2;
74880;PMS5003;63427;49.654;6.596;2023-09-19T16:16:12;2;2;
74880;PMS5003;63427;49.654;6.596;2023-09-19T16:18:37;3;2;
74880;PMS5003;63427;49.654;6.596;2023-09-19T16:21:02;2;2;
74880;PMS5003;63427;49.654;6.596;2023-09-19T16:23:27;3;3;
74880;PMS5003;63427;49.654;6.596;2023-09-19T16:28:17;2;2;
74880;PMS5003;63427;49.654;6.596;2023-09-19T16:30:43;2;2;
74880;PMS5003;63427;49.654;6.596;2023-09-19T16:33:07;3;3;
74880;PMS5003;63427;49.654;6.596;2023-09-19T16:35:36;2;2;
74880;PMS5003;63427;49.654;6.596;2023-09-19T16:37:57;2;2;
74880;PMS5003;63427;49.654;6.596;2023-09-19T16:40:22;3;3;
74880;PMS5003;63427;49.654;6.596;2023-09-19T16:42:47;2;2;
74880;PMS5003;63427;49.654;6.596;2023-09-19T16:45:13;2;2;
74880;PMS5003;63427;49.654;6.596;2023-09-19T16:47:38;3;3;
74880;PMS5003;63427;49.654;6.596;2023-09-19T16:50:03;3;3;
74880;PMS5003;63427;49.654;6.596;2023-09-19T16:52:28;2;2;
74880;PMS5003;63427;49.654;6.596;2023-09-19T16:54:53;4;3;
74880;PMS5003;63427;49.654;6.596;2023-09-19T16:57:18;3;3;
74880;PMS5003;63427;49.654;6.596;2023-09-19T16:59:43;2;2;
74880;PMS5003;63427;49.654;6.596;2023-09-19T17:02:08;3;2;
74880;PMS5003;63427;49.654;6.596;2023-09-19T17:04:33;4;4;
74880;PMS5003;63427;49.654;6.596;2023-09-19T17:06:58;3;3;
74880;PMS5003;63427;49.654;6.596;2023-09-19T17:09:23;4;4;
74880;PMS5003;63427;49.654;6.596;2023-09-19T17:11:49;3;2;
74880;PMS5003;63427;49.654;6.596;2023-09-19T17:14:13;2;2;
74880;PMS5003;63427;49.654;6.596;2023-09-19T17:16:39;4;4;
74880;PMS5003;63427;49.654;6.596;2023-09-19T17:19:04;3;3;
74880;PMS5003;63427;49.654;6.596;2023-09-19T17:21:29;3;3;
74880;PMS5003;63427;49.654;6.596;2023-09-19T17:23:55;3;3;